createdAt,value
2017-10-17T00:01:11.915Z,31.97
2017-10-17T00:03:37.985Z,22.83
2017-10-17T00:06:04.042Z,24.60
2017-10-17T00:08:30.118Z,24.17
2017-10-17T00:10:56.202Z,31.07
2017-10-17T00:13:23.047Z,30.73
2017-10-17T00:15:49.109Z,22.03
2017-10-17T00:18:15.180Z,23.17
2017-10-17T00:20:41.236Z,33.57
2017-10-17T00:23:07.294Z,32.80
2017-10-17T00:25:33.357Z,24.00
2017-10-17T00:27:59.440Z,30.00
2017-10-17T00:30:25.525Z,25.90
2017-10-17T00:32:53.483Z,25.43
2017-10-17T00:35:29.511Z,23.20
2017-10-17T00:37:58.605Z,27.33
2017-10-17T00:40:24.669Z,31.27
2017-10-17T00:42:51.511Z,24.40
2017-10-17T00:45:18.301Z,30.73
2017-10-17T00:47:44.370Z,27.70
2017-10-17T00:50:10.413Z,23.13
2017-10-17T00:52:36.464Z,35.43
2017-10-17T00:55:03.266Z,27.13
2017-10-17T00:57:29.316Z,22.17
2017-10-17T00:59:55.420Z,23.37
2017-10-17T01:02:21.509Z,23.23
2017-10-17T01:04:48.336Z,25.90
2017-10-17T01:07:14.384Z,24.33
2017-10-17T01:09:40.479Z,22.37
2017-10-17T01:12:06.526Z,24.90
2017-10-17T01:14:32.602Z,25.47
2017-10-17T01:16:58.662Z,27.10
2017-10-17T01:19:24.782Z,24.57
2017-10-17T01:21:50.833Z,27.07
2017-10-17T01:24:16.885Z,31.80
2017-10-17T01:26:42.949Z,22.53
2017-10-17T01:29:10.927Z,25.53
2017-10-17T01:31:36.974Z,37.80
2017-10-17T01:34:03.041Z,28.87
2017-10-17T01:36:29.107Z,30.33
2017-10-17T01:38:57.630Z,36.50
2017-10-17T01:41:23.721Z,33.90
2017-10-17T01:43:50.738Z,22.30
2017-10-17T01:46:19.850Z,32.50
2017-10-17T01:48:46.934Z,26.17
2017-10-17T01:51:16.639Z,23.80
2017-10-17T01:53:49.004Z,27.57
2017-10-17T01:56:30.038Z,25.60
2017-10-17T01:58:59.767Z,30.00
2017-10-17T02:01:25.871Z,33.33
2017-10-17T02:03:51.937Z,32.33
2017-10-17T02:06:18.009Z,34.23
2017-10-17T02:08:44.050Z,29.83
2017-10-17T02:11:21.833Z,31.63
2017-10-17T02:13:47.873Z,28.60
2017-10-17T02:16:13.942Z,28.83
2017-10-17T02:18:40.995Z,35.80
2017-10-17T02:21:08.323Z,22.77
2017-10-17T02:23:34.376Z,27.53
2017-10-17T02:26:13.393Z,23.83
2017-10-17T02:28:40.322Z,27.43
2017-10-17T02:31:06.377Z,32.90
2017-10-17T02:33:34.194Z,26.13
2017-10-17T02:36:00.315Z,29.80
2017-10-17T02:38:26.378Z,32.00
2017-10-17T02:40:53.208Z,28.60
2017-10-17T02:43:19.993Z,27.90
2017-10-17T02:45:46.039Z,26.30
2017-10-17T02:48:18.377Z,32.43
2017-10-17T02:50:44.430Z,31.83
2017-10-17T02:53:10.475Z,29.83
2017-10-17T02:55:36.526Z,24.63
2017-10-17T02:58:03.546Z,28.60
2017-10-17T03:00:30.333Z,31.73
2017-10-17T03:02:57.998Z,27.33
2017-10-17T03:05:27.960Z,37.10
2017-10-17T03:08:00.858Z,32.10
2017-10-17T03:10:26.909Z,32.90
2017-10-17T03:12:52.975Z,28.10
2017-10-17T03:15:21.982Z,32.60
2017-10-17T03:17:48.026Z,29.23
2017-10-17T03:20:14.081Z,34.93
2017-10-17T03:22:40.137Z,54.80
2017-10-17T03:25:06.194Z,31.97
2017-10-17T03:27:32.233Z,26.50
2017-10-17T03:29:58.276Z,38.17
2017-10-17T03:32:24.302Z,32.10
2017-10-17T03:34:50.314Z,36.33
2017-10-17T03:37:28.295Z,24.87
2017-10-17T03:39:59.206Z,26.13
2017-10-17T03:42:26.081Z,33.80
2017-10-17T03:44:53.099Z,38.23
2017-10-17T03:47:25.381Z,32.13
2017-10-17T03:49:52.281Z,40.63
2017-10-17T03:52:18.265Z,30.90
2017-10-17T03:54:45.209Z,32.27
2017-10-17T03:57:11.978Z,34.40
2017-10-17T03:59:43.648Z,33.23
2017-10-17T04:02:09.617Z,33.73
2017-10-17T04:04:51.529Z,36.23
2017-10-17T04:07:26.569Z,40.50
2017-10-17T04:10:10.489Z,38.13
2017-10-17T04:12:36.470Z,38.77
2017-10-17T04:15:04.206Z,31.40
2017-10-17T04:17:34.253Z,34.90
2017-10-17T04:20:03.294Z,40.33
2017-10-17T04:22:40.533Z,41.87
2017-10-17T04:25:07.506Z,39.43
2017-10-17T04:27:37.405Z,41.77
2017-10-17T04:30:09.378Z,36.80
2017-10-17T04:32:39.066Z,47.53
2017-10-17T04:35:06.086Z,36.60
2017-10-17T04:37:32.113Z,40.20
2017-10-17T04:39:58.130Z,46.73
2017-10-17T04:42:49.066Z,39.30
2017-10-17T04:45:27.351Z,43.37
2017-10-17T04:51:28.389Z,45.77
2017-10-17T04:54:18.428Z,48.80
2017-10-17T04:56:49.194Z,51.33
2017-10-17T04:59:19.025Z,42.00
2017-10-17T05:01:45.781Z,49.67
2017-10-17T05:04:20.065Z,49.00
2017-10-17T05:06:46.794Z,42.33
2017-10-17T05:09:22.793Z,46.20
2017-10-17T05:11:48.788Z,46.93
2017-10-17T05:17:24.058Z,45.40
2017-10-17T05:20:16.574Z,46.93
2017-10-17T05:22:52.538Z,47.67
2017-10-17T05:25:21.374Z,55.33
2017-10-17T05:30:47.442Z,37.93
2017-10-17T05:36:14.058Z,40.90
2017-10-17T05:38:40.072Z,46.03
2017-10-17T05:41:06.126Z,45.50
2017-10-17T05:43:50.681Z,40.40
2017-10-17T05:46:16.687Z,40.10
2017-10-17T05:48:44.294Z,47.47
2017-10-17T05:54:06.918Z,48.83
2017-10-17T05:56:32.939Z,47.57
2017-10-17T05:58:58.966Z,51.33
2017-10-17T06:01:25.015Z,47.67
2017-10-17T06:03:51.056Z,47.33
2017-10-17T06:06:17.053Z,41.60
2017-10-17T06:08:43.058Z,42.40
2017-10-17T06:11:09.066Z,48.70
2017-10-17T06:13:35.090Z,45.83
2017-10-17T06:16:01.110Z,46.43
2017-10-17T06:18:27.221Z,41.40
2017-10-17T06:20:53.303Z,47.27
2017-10-17T06:23:20.147Z,48.27
2017-10-17T06:25:47.021Z,45.97
2017-10-17T06:28:13.109Z,48.10
2017-10-17T06:30:39.157Z,44.53
2017-10-17T06:33:05.214Z,56.33
2017-10-17T06:35:31.320Z,50.40
2017-10-17T06:37:57.477Z,49.37
2017-10-17T06:40:23.590Z,41.20
2017-10-17T06:42:49.728Z,32.07
2017-10-17T06:45:16.566Z,32.20
2017-10-17T06:47:43.381Z,45.23
2017-10-17T06:50:10.267Z,35.73
2017-10-17T06:52:36.368Z,38.43
2017-10-17T06:55:02.469Z,37.40
2017-10-17T06:57:29.046Z,42.47
2017-10-17T06:59:55.190Z,40.17
2017-10-17T07:02:21.321Z,38.57
2017-10-17T07:04:47.424Z,35.90
2017-10-17T07:07:13.544Z,41.70
2017-10-17T07:09:39.672Z,41.90
2017-10-17T07:12:05.764Z,36.17
2017-10-17T07:14:31.834Z,45.93
2017-10-17T07:16:58.641Z,45.63
2017-10-17T07:19:24.760Z,35.93
2017-10-17T07:21:50.833Z,53.23
2017-10-17T07:24:16.940Z,40.43
2017-10-17T07:26:43.033Z,44.33
2017-10-17T07:29:09.154Z,45.77
2017-10-17T07:31:35.291Z,45.13
2017-10-17T07:34:01.448Z,35.37
2017-10-17T07:36:27.583Z,37.33
2017-10-17T07:38:53.706Z,49.93
2017-10-17T07:41:19.799Z,44.13
2017-10-17T07:43:45.874Z,32.77
2017-10-17T07:46:12.711Z,37.80
2017-10-17T07:48:39.522Z,29.33
2017-10-17T07:51:05.590Z,49.77
2017-10-17T07:53:31.693Z,38.27
2017-10-17T07:55:57.798Z,42.37
2017-10-17T07:58:23.862Z,41.50
2017-10-17T08:00:49.970Z,39.40
2017-10-17T08:03:16.077Z,51.60
2017-10-17T08:05:42.914Z,53.23
2017-10-17T08:08:09.026Z,46.33
2017-10-17T08:10:35.118Z,29.87
2017-10-17T08:13:01.189Z,40.67
2017-10-17T08:15:27.263Z,33.77
2017-10-17T08:17:54.082Z,40.40
2017-10-17T08:20:20.220Z,33.87
2017-10-17T08:22:46.266Z,40.30
2017-10-17T08:25:13.097Z,26.77
2017-10-17T08:27:39.217Z,36.53
2017-10-17T08:30:05.289Z,31.77
2017-10-17T08:32:32.542Z,35.37
2017-10-17T08:34:58.781Z,44.17
2017-10-17T08:37:24.898Z,45.00
2017-10-17T08:39:50.970Z,42.53
2017-10-17T08:42:17.042Z,36.47
2017-10-17T08:44:43.957Z,44.53
2017-10-17T08:47:10.014Z,40.17
2017-10-17T08:49:36.139Z,34.20
2017-10-17T08:52:02.245Z,35.90
2017-10-17T08:54:28.340Z,43.83
2017-10-17T08:56:54.423Z,50.73
2017-10-17T08:59:21.249Z,34.77
2017-10-17T09:01:48.062Z,39.43
2017-10-17T09:04:14.232Z,41.43
2017-10-17T09:06:40.286Z,35.10
2017-10-17T09:09:06.348Z,35.37
2017-10-17T09:11:32.462Z,40.30
2017-10-17T09:13:58.537Z,33.23
2017-10-17T09:16:24.682Z,35.07
2017-10-17T09:18:50.794Z,37.07
2017-10-17T09:21:16.930Z,34.70
2017-10-17T09:23:43.042Z,31.17
2017-10-17T09:26:09.115Z,38.93
2017-10-17T09:28:35.217Z,37.30
2017-10-17T09:31:01.304Z,34.70
2017-10-17T09:33:28.114Z,42.47
2017-10-17T09:35:54.950Z,44.57
2017-10-17T09:38:21.961Z,32.77
2017-10-17T09:40:48.065Z,27.47
2017-10-17T09:43:14.254Z,34.80
2017-10-17T09:45:42.267Z,20.07
2017-10-17T09:48:08.759Z,25.00
2017-10-17T09:50:36.086Z,38.80
2017-10-17T09:53:02.178Z,21.47
2017-10-17T09:55:28.266Z,27.77
2017-10-17T09:57:54.362Z,31.23
2017-10-17T10:00:20.418Z,33.50
2017-10-17T10:02:46.514Z,31.57
2017-10-17T10:05:12.586Z,41.33
2017-10-17T10:07:38.699Z,35.10
2017-10-17T10:10:04.799Z,28.33
2017-10-17T10:12:31.634Z,29.97
2017-10-17T10:14:57.697Z,39.20
2017-10-17T10:17:23.766Z,34.60
2017-10-17T10:19:49.822Z,27.37
2017-10-17T10:22:15.916Z,36.23
2017-10-17T10:24:41.998Z,32.50
2017-10-17T10:27:08.093Z,25.23
2017-10-17T10:29:34.877Z,42.57
2017-10-17T10:32:01.692Z,28.30
2017-10-17T10:34:27.786Z,34.87
2017-10-17T10:36:53.851Z,23.83
2017-10-17T10:39:20.710Z,25.43
2017-10-17T10:41:46.796Z,32.60
2017-10-17T10:44:12.892Z,26.93
2017-10-17T10:46:40.418Z,30.50
2017-10-17T10:49:06.509Z,25.37
2017-10-17T10:51:32.575Z,27.13
2017-10-17T10:53:59.398Z,32.00
2017-10-17T10:56:26.199Z,30.43
2017-10-17T10:58:52.383Z,38.57
2017-10-17T11:01:18.468Z,31.53
2017-10-17T11:03:44.570Z,36.80
2017-10-17T11:06:10.652Z,28.87
2017-10-17T11:08:36.696Z,23.83
2017-10-17T11:11:02.729Z,46.57
2017-10-17T11:13:28.823Z,32.97
2017-10-17T11:15:54.902Z,25.70
2017-10-17T11:18:21.993Z,30.93
2017-10-17T11:20:48.054Z,42.90
2017-10-17T11:23:15.905Z,42.10
2017-10-17T11:25:43.737Z,35.57
2017-10-17T11:28:11.556Z,43.53
2017-10-17T11:30:39.413Z,34.63
2017-10-17T11:33:07.234Z,34.77
2017-10-17T11:35:35.086Z,24.23
2017-10-17T11:38:02.888Z,26.87
2017-10-17T11:40:36.838Z,27.97
2017-10-17T11:43:10.868Z,38.73
2017-10-17T11:45:38.684Z,26.23
2017-10-17T11:48:06.560Z,22.27
2017-10-17T11:50:34.468Z,29.70
2017-10-17T11:53:02.308Z,40.33
2017-10-17T11:55:30.157Z,29.30
2017-10-17T11:57:58.018Z,41.10
2017-10-17T12:00:25.906Z,26.30
2017-10-17T12:02:53.762Z,32.63
2017-10-17T12:05:21.622Z,25.63
2017-10-17T12:07:49.482Z,26.73
2017-10-17T12:10:17.300Z,37.07
2017-10-17T12:12:45.142Z,46.70
2017-10-17T12:15:12.995Z,35.60
2017-10-17T12:17:40.874Z,25.17
2017-10-17T12:20:08.727Z,29.93
2017-10-17T12:22:36.590Z,34.57
2017-10-17T12:25:04.460Z,21.73
2017-10-17T12:27:32.318Z,34.70
2017-10-17T12:30:00.151Z,22.33
2017-10-17T12:32:28.048Z,29.00
2017-10-17T12:34:56.126Z,32.53
2017-10-17T12:37:23.981Z,30.43
2017-10-17T12:39:51.858Z,22.60
2017-10-17T12:42:19.730Z,30.10
2017-10-17T12:44:47.600Z,29.33
2017-10-17T12:47:15.421Z,31.70
2017-10-17T12:49:43.329Z,23.20
2017-10-17T12:52:11.236Z,16.80
2017-10-17T12:54:39.098Z,25.60
2017-10-17T12:57:06.962Z,23.07
2017-10-17T12:59:34.798Z,29.00
2017-10-17T13:02:02.629Z,30.73
2017-10-17T13:04:30.488Z,27.17
2017-10-17T13:06:58.701Z,41.63
2017-10-17T13:09:26.565Z,31.13
2017-10-17T13:11:54.417Z,36.13
2017-10-17T13:14:22.321Z,37.20
2017-10-17T13:16:50.188Z,26.60
2017-10-17T13:19:18.072Z,32.80
2017-10-17T13:21:45.919Z,33.73
2017-10-17T13:24:13.817Z,27.87
2017-10-17T13:26:41.651Z,28.97
2017-10-17T13:29:09.500Z,27.30
2017-10-17T13:31:37.385Z,22.93
2017-10-17T13:34:05.255Z,23.97
2017-10-17T13:36:33.137Z,29.20
2017-10-17T13:39:00.989Z,28.93
2017-10-17T13:41:28.833Z,29.03
2017-10-17T13:43:56.676Z,41.30
2017-10-17T13:46:24.523Z,21.47
2017-10-17T13:48:52.400Z,30.77
2017-10-17T13:51:20.251Z,34.60
2017-10-17T13:53:48.058Z,26.70
2017-10-17T13:56:15.912Z,21.93
2017-10-17T13:58:43.747Z,30.60
2017-10-17T14:01:11.597Z,39.80
2017-10-17T14:03:39.437Z,35.90
2017-10-17T14:06:07.302Z,39.50
2017-10-17T14:08:35.155Z,31.23
2017-10-17T14:11:02.989Z,26.70
2017-10-17T14:13:30.846Z,28.70
2017-10-17T14:15:58.693Z,29.13
2017-10-17T14:18:26.535Z,33.03
2017-10-17T14:20:54.384Z,24.33
2017-10-17T14:23:22.213Z,39.53
2017-10-17T14:25:50.042Z,37.03
2017-10-17T14:28:17.848Z,28.87
2017-10-17T14:30:45.688Z,39.27
2017-10-17T14:33:13.519Z,28.33
2017-10-17T14:35:42.388Z,25.17
2017-10-17T14:38:10.214Z,35.23
2017-10-17T14:40:38.065Z,23.63
2017-10-17T14:43:05.905Z,31.50
2017-10-17T14:45:33.790Z,24.63
2017-10-17T14:48:01.637Z,30.17
2017-10-17T14:50:29.465Z,32.87
2017-10-17T14:52:57.332Z,20.53
2017-10-17T14:55:25.194Z,28.80
2017-10-17T14:57:53.069Z,28.37
2017-10-17T15:00:20.927Z,31.73
2017-10-17T15:02:48.789Z,27.13
2017-10-17T15:05:16.640Z,28.00
2017-10-17T15:07:44.489Z,35.70
2017-10-17T15:10:12.317Z,26.47
2017-10-17T15:12:40.178Z,40.67
2017-10-17T15:15:08.001Z,25.90
2017-10-17T15:17:35.856Z,32.33
2017-10-17T15:20:03.710Z,38.10
2017-10-17T15:22:31.833Z,20.47
2017-10-17T15:24:59.673Z,23.63
2017-10-17T15:27:27.510Z,41.17
2017-10-17T15:29:55.357Z,36.10
2017-10-17T15:32:23.255Z,21.77
2017-10-17T15:34:51.093Z,20.43
2017-10-17T15:37:18.931Z,30.40
2017-10-17T15:39:46.756Z,26.73
2017-10-17T15:42:14.594Z,32.03
2017-10-17T15:44:42.489Z,32.10
2017-10-17T15:47:10.307Z,30.23
2017-10-17T15:49:38.126Z,41.53
2017-10-17T15:52:05.985Z,29.80
2017-10-17T15:54:33.833Z,32.87
2017-10-17T15:57:01.653Z,41.93
2017-10-17T15:59:29.506Z,25.80
2017-10-17T16:01:57.357Z,29.93
2017-10-17T16:04:25.177Z,30.23
2017-10-17T16:06:52.997Z,26.53
2017-10-17T16:09:20.869Z,34.47
2017-10-17T16:11:48.749Z,33.87
2017-10-17T16:14:16.594Z,43.33
2017-10-17T16:16:44.429Z,31.70
2017-10-17T16:19:12.652Z,31.87
2017-10-17T16:21:40.478Z,47.80
2017-10-17T16:24:08.309Z,45.10
2017-10-17T16:26:36.148Z,33.93
2017-10-17T16:29:04.001Z,27.67
2017-10-17T16:31:31.873Z,43.73
2017-10-17T16:33:59.706Z,27.03
2017-10-17T16:36:27.562Z,25.13
2017-10-17T16:38:55.452Z,33.83
2017-10-17T16:41:23.337Z,38.73
2017-10-17T16:43:51.149Z,29.20
2017-10-17T16:46:18.985Z,40.23
2017-10-17T16:48:46.863Z,36.10
2017-10-17T16:51:14.731Z,41.07
2017-10-17T16:53:42.618Z,35.30
2017-10-17T16:56:10.546Z,23.50
2017-10-17T16:58:38.400Z,30.17
2017-10-17T17:01:06.254Z,26.70
2017-10-17T17:03:34.101Z,39.67
2017-10-17T17:06:01.954Z,17.70
2017-10-17T17:08:29.833Z,36.67
2017-10-17T17:10:57.689Z,36.27
2017-10-17T17:13:25.589Z,36.17
2017-10-17T17:15:53.422Z,32.83
2017-10-17T17:18:21.254Z,28.43
2017-10-17T17:20:49.113Z,40.47
2017-10-17T17:23:16.965Z,38.43
2017-10-17T17:25:44.797Z,40.83
2017-10-17T17:28:12.645Z,30.37
2017-10-17T17:30:40.491Z,45.60
2017-10-17T17:33:08.351Z,47.70
2017-10-17T17:35:36.230Z,39.70
2017-10-17T17:38:04.087Z,37.93
2017-10-17T17:40:31.954Z,27.67
2017-10-17T17:42:59.797Z,42.27
2017-10-17T17:45:27.653Z,40.47
2017-10-17T17:47:55.568Z,34.07
2017-10-17T17:50:23.441Z,35.03
2017-10-17T17:52:51.293Z,36.90
2017-10-17T17:55:19.149Z,37.70
2017-10-17T17:57:47.001Z,37.67
2017-10-17T18:00:14.870Z,28.87
2017-10-17T18:02:42.783Z,44.07
2017-10-17T18:05:10.637Z,38.27
2017-10-17T18:07:38.521Z,41.83
2017-10-17T18:10:06.400Z,30.30
2017-10-17T18:12:34.233Z,39.30
2017-10-17T18:15:02.070Z,39.87
2017-10-17T18:17:29.936Z,49.40
2017-10-17T18:19:57.844Z,43.70
2017-10-17T18:22:25.652Z,44.47
2017-10-17T18:24:53.506Z,45.50
2017-10-17T18:27:21.374Z,43.63
2017-10-17T18:29:49.237Z,48.37
2017-10-17T18:32:17.134Z,34.37
2017-10-17T18:34:44.985Z,25.77
2017-10-17T18:37:12.833Z,29.17
2017-10-17T18:39:40.701Z,38.93
2017-10-17T18:42:08.537Z,36.53
2017-10-17T18:44:36.417Z,41.90
2017-10-17T18:47:04.269Z,34.50
2017-10-17T18:49:32.101Z,45.17
2017-10-17T18:52:00.006Z,40.97
2017-10-17T18:54:27.849Z,39.90
2017-10-17T18:56:55.700Z,44.10
2017-10-17T18:59:24.128Z,47.50
2017-10-17T19:01:52.036Z,37.50
2017-10-17T19:04:20.256Z,38.40
2017-10-17T19:06:48.114Z,41.47
2017-10-17T19:09:16.745Z,47.33
2017-10-17T19:11:44.630Z,44.30
2017-10-17T19:14:12.482Z,46.17
2017-10-17T19:16:40.341Z,30.80
2017-10-17T19:19:08.186Z,35.63
2017-10-17T19:21:36.039Z,56.90
2017-10-17T19:24:03.887Z,36.90
2017-10-17T19:26:31.730Z,45.73
2017-10-17T19:28:59.561Z,50.20
2017-10-17T19:31:27.416Z,48.10
2017-10-17T19:33:55.281Z,33.30
2017-10-17T19:36:23.170Z,31.30
2017-10-17T19:38:51.056Z,45.37
2017-10-17T19:41:18.909Z,50.63
2017-10-17T19:43:46.763Z,48.90
2017-10-17T19:46:14.611Z,55.47
2017-10-17T19:48:42.459Z,43.87
2017-10-17T19:51:10.406Z,43.77
2017-10-17T19:53:38.273Z,33.00
2017-10-17T19:56:06.559Z,43.30
2017-10-17T19:58:34.401Z,41.00
2017-10-17T20:01:02.238Z,48.30
2017-10-17T20:03:30.096Z,49.03
2017-10-17T20:05:57.947Z,48.90
2017-10-17T20:08:25.899Z,27.67
2017-10-17T20:10:53.785Z,47.43
2017-10-17T20:13:21.623Z,55.77
2017-10-17T20:15:49.515Z,54.10
2017-10-17T20:18:17.382Z,51.73
2017-10-17T20:20:45.245Z,64.47
2017-10-17T20:23:13.090Z,60.37
2017-10-17T20:25:40.929Z,44.03
2017-10-17T20:28:08.785Z,41.80
2017-10-17T20:30:36.680Z,38.67
2017-10-17T20:33:04.540Z,39.43
2017-10-17T20:35:32.393Z,58.83
2017-10-17T20:38:00.247Z,56.90
2017-10-17T20:40:28.093Z,58.80
2017-10-17T20:42:55.929Z,59.23
2017-10-17T20:45:23.805Z,53.33
2017-10-17T20:47:51.626Z,59.37
2017-10-17T20:50:19.509Z,51.00
2017-10-17T20:52:47.358Z,48.73
2017-10-17T20:55:15.227Z,50.00
2017-10-17T20:57:43.089Z,54.73
2017-10-17T21:00:10.952Z,56.57
2017-10-17T21:02:38.838Z,72.00
2017-10-17T21:05:06.683Z,48.77
2017-10-17T21:07:34.556Z,41.60
2017-10-17T21:10:02.369Z,69.70
2017-10-17T21:12:30.237Z,42.80
2017-10-17T21:14:58.072Z,44.47
2017-10-17T21:17:25.929Z,55.30
2017-10-17T21:19:53.780Z,48.47
2017-10-17T21:22:21.624Z,54.93
2017-10-17T21:24:49.473Z,66.67
2017-10-17T21:27:17.317Z,49.50
2017-10-17T21:29:45.158Z,38.57
2017-10-17T21:32:12.996Z,45.77
2017-10-17T21:34:40.837Z,46.43
2017-10-17T21:37:08.662Z,46.53
2017-10-17T21:39:36.482Z,44.63
2017-10-17T21:42:04.325Z,75.77
2017-10-17T21:44:32.158Z,52.37
2017-10-17T21:46:59.996Z,76.00
2017-10-17T21:49:27.820Z,52.40
2017-10-17T21:51:55.721Z,52.37
2017-10-17T21:54:23.618Z,57.27
2017-10-17T21:56:51.478Z,54.60
2017-10-17T21:59:19.329Z,62.60
2017-10-17T22:01:47.169Z,51.63
2017-10-17T22:04:15.009Z,52.00
2017-10-17T22:06:42.865Z,48.10
2017-10-17T22:09:10.740Z,47.97
2017-10-17T22:11:38.629Z,42.90
2017-10-17T22:14:06.472Z,52.33
2017-10-17T22:16:34.310Z,50.53
2017-10-17T22:19:02.234Z,44.03
2017-10-17T22:21:30.068Z,55.63
2017-10-17T22:23:57.930Z,69.47
2017-10-17T22:26:26.126Z,69.13
2017-10-17T22:28:53.992Z,53.87
2017-10-17T22:31:21.849Z,60.20
2017-10-17T22:33:49.697Z,57.23
2017-10-17T22:36:17.579Z,51.17
2017-10-17T22:38:45.443Z,43.33
2017-10-17T22:41:13.264Z,48.77
2017-10-17T22:43:41.103Z,44.83
2017-10-17T22:46:08.951Z,52.33
2017-10-17T22:48:36.797Z,41.63
2017-10-17T22:51:04.624Z,68.13
2017-10-17T22:53:32.462Z,50.23
2017-10-17T22:56:00.297Z,53.43
2017-10-17T22:58:28.121Z,51.33
2017-10-17T23:00:55.960Z,55.37
2017-10-17T23:03:23.835Z,71.87
2017-10-17T23:05:51.697Z,46.07
2017-10-17T23:08:19.560Z,54.60
2017-10-17T23:10:47.399Z,59.70
2017-10-17T23:13:15.293Z,68.57
2017-10-17T23:15:43.117Z,53.43
2017-10-17T23:18:17.131Z,67.47
2017-10-17T23:20:44.973Z,47.50
2017-10-17T23:23:12.824Z,50.40
2017-10-17T23:25:40.640Z,60.60
2017-10-17T23:28:08.489Z,50.67
2017-10-17T23:30:36.318Z,60.07
2017-10-17T23:33:04.154Z,64.20
2017-10-17T23:35:32.024Z,61.03
2017-10-17T23:37:59.872Z,56.73
2017-10-17T23:40:27.733Z,64.17
2017-10-17T23:42:55.578Z,51.97
2017-10-17T23:45:23.510Z,54.80
2017-10-17T23:47:51.353Z,67.47
2017-10-17T23:50:19.185Z,69.97
2017-10-17T23:52:47.053Z,64.47
2017-10-17T23:55:14.882Z,64.00
2017-10-17T23:57:42.736Z,52.63
